»·PEaware :: N48HB KVNY-KSNA

N48HB :: KVNY-KSNA

FLIGHT INFORMATION

Flight Status: Arrived
Operator: Privately registered:
United States
More flights under this callsign
Pilot: Harold B. (11150)
Aircraft: CESSNA 172 SKYHAWK
(C172)
More flights by this aircraft type
Origin: KVNY Van Nuys
United States
Destination: KSNA John Wayne-Orange Co
United States
More flights between these airports :: More routes between these airports
Route: +LAX VPLVT VPLHP
File this flight plan on PilotEdge
Remarks: cat10 cessna skyhawk / G
Altitude:
(Current/Filed)
5,500ft
Speed:
(Current/Filed)
0kts
Departed: 14-Apr-18 04:21 PM
Arrived: 14-Apr-18 05:09 PM
Distance/Time
Traveled:
44nm/0:48
Distance/Time
To Go:
Arrived

Flight Plot

Page will automatically refresh every two minutes.

Flight plan parsing failed; only flown route is shown


Map Options




Map Legend


Flown Route
Filed Route
Departure Airport
Arrival Airport
Navaid (VOR, NDB)
Fix

Horizontal Profiles

Position Reports

Time Latitude Longitude Heading Altitude Ground
Speed
14-Apr-18 15:50 34.208358 -118.491925 58 806ft 0kts
14-Apr-18 15:51 34.208358 -118.491925 58 806ft 0kts
14-Apr-18 15:52 34.208358 -118.491925 58 806ft 0kts
14-Apr-18 15:53 34.208358 -118.491925 58 806ft 0kts
14-Apr-18 15:54 34.208358 -118.491925 58 806ft 0kts
14-Apr-18 15:55 34.208358 -118.491925 58 806ft 0kts
14-Apr-18 15:56 34.208358 -118.491925 58 806ft 0kts
14-Apr-18 15:57 34.208358 -118.491925 58 806ft 0kts
14-Apr-18 15:58 34.208358 -118.491925 58 806ft 0kts
14-Apr-18 15:59 34.208358 -118.491925 58 806ft 0kts
14-Apr-18 16:00 34.208358 -118.491925 58 806ft 0kts
14-Apr-18 16:01 34.208358 -118.491925 58 806ft 0kts
14-Apr-18 16:02 34.208358 -118.491925 58 806ft 0kts
14-Apr-18 16:03 34.208360 -118.491921 56 806ft 0kts
14-Apr-18 16:04 34.208360 -118.491921 56 806ft 0kts
14-Apr-18 16:05 34.208360 -118.491921 56 806ft 0kts
14-Apr-18 16:06 34.208363 -118.491902 86 806ft 0kts
14-Apr-18 16:07 34.208363 -118.491902 86 806ft 0kts
14-Apr-18 16:08 34.208363 -118.491902 86 806ft 0kts
14-Apr-18 16:09 34.208363 -118.491902 86 806ft 0kts
14-Apr-18 16:10 34.208363 -118.491902 86 806ft 0kts
14-Apr-18 16:11 34.208761 -118.491551 17 806ft 7kts
14-Apr-18 16:12 34.211948 -118.491766 345 806ft 14kts
14-Apr-18 16:13 34.214243 -118.491927 356 806ft 6kts
14-Apr-18 16:14 34.217019 -118.492250 359 806ft 9kts
14-Apr-18 16:15 34.218656 -118.492200 56 806ft 0kts
14-Apr-18 16:16 34.218656 -118.492200 56 806ft 0kts
14-Apr-18 16:17 34.218656 -118.492200 56 806ft 0kts
14-Apr-18 16:18 34.218656 -118.492200 56 806ft 0kts
14-Apr-18 16:19 34.218683 -118.492141 63 806ft 4kts
14-Apr-18 16:20 34.209870 -118.490255 177 870ft 90kts
14-Apr-18 16:21 34.192262 -118.504876 262 1719ft 84kts
14-Apr-18 16:22 34.187597 -118.532424 263 2656ft 84kts
14-Apr-18 16:23 34.182989 -118.560332 264 3519ft 86kts
14-Apr-18 16:24 34.179170 -118.583997 263 4168ft 86kts
14-Apr-18 16:25 34.174484 -118.612736 263 4880ft 87kts
14-Apr-18 16:26 34.169726 -118.641674 263 5528ft 90kts
14-Apr-18 16:27 34.164516 -118.676203 263 5564ft 111kts
14-Apr-18 16:28 34.159159 -118.711570 263 5565ft 105kts
14-Apr-18 16:29 34.165636 -118.739759 356 5562ft 108kts
14-Apr-18 16:30 34.174579 -118.705637 93 5565ft 125kts
14-Apr-18 16:31 34.169132 -118.663710 96 5565ft 126kts
14-Apr-18 16:32 34.163715 -118.622278 96 5564ft 119kts
14-Apr-18 16:33 34.157906 -118.591108 116 5564ft 113kts
14-Apr-18 16:34 34.142204 -118.558789 129 5549ft 112kts
14-Apr-18 16:35 34.119265 -118.534156 144 5547ft 110kts
14-Apr-18 16:36 34.095079 -118.511682 144 5547ft 109kts
14-Apr-18 16:37 34.070924 -118.489128 144 5547ft 109kts
14-Apr-18 16:38 34.046061 -118.465871 144 5548ft 120kts
14-Apr-18 16:39 34.016864 -118.445665 166 5547ft 122kts
14-Apr-18 16:40 33.984003 -118.436299 171 5547ft 121kts
14-Apr-18 16:41 33.950782 -118.428564 174 5548ft 121kts
14-Apr-18 16:42 33.918583 -118.416266 160 5548ft 123kts
14-Apr-18 16:43 33.887416 -118.399255 154 5546ft 123kts
14-Apr-18 16:44 33.857301 -118.379157 147 5546ft 124kts
14-Apr-18 16:45 33.830204 -118.353281 143 5546ft 124kts
14-Apr-18 16:46 33.805374 -118.325710 130 5544ft 125kts
14-Apr-18 16:47 33.784880 -118.292034 115 5544ft 125kts
14-Apr-18 16:48 33.773393 -118.252627 104 5544ft 125kts
14-Apr-18 16:49 33.760364 -118.214084 124 5543ft 125kts
14-Apr-18 16:50 33.737353 -118.182927 134 5544ft 125kts
14-Apr-18 16:51 33.713497 -118.152494 134 5545ft 125kts
14-Apr-18 16:52 33.689815 -118.122137 134 5545ft 125kts
14-Apr-18 16:53 33.667550 -118.090381 116 5553ft 125kts
14-Apr-18 16:54 33.676894 -118.053135 57 5554ft 119kts
14-Apr-18 16:55 33.691657 -118.017962 57 5554ft 119kts
14-Apr-18 16:56 33.705159 -117.985515 57 4888ft 114kts
14-Apr-18 16:57 33.718370 -117.953988 57 4002ft 114kts
14-Apr-18 16:58 33.731293 -117.923302 57 3097ft 114kts
14-Apr-18 16:59 33.743818 -117.893693 57 2222ft 114kts
14-Apr-18 17:00 33.756442 -117.863698 59 1368ft 112kts
14-Apr-18 17:01 33.758107 -117.832065 117 1285ft 90kts
14-Apr-18 17:02 33.744820 -117.809456 140 1137ft 77kts
14-Apr-18 17:03 33.730345 -117.811348 253 872ft 60kts
14-Apr-18 17:04 33.721564 -117.827684 245 779ft 59kts
14-Apr-18 17:05 33.710906 -117.841754 234 724ft 53kts
14-Apr-18 17:06 33.699569 -117.852644 227 532ft 53kts
14-Apr-18 17:07 33.686672 -117.861761 222 224ft 54kts
14-Apr-18 17:08 33.678032 -117.867663 245 60ft 9kts
14-Apr-18 17:09 33.678155 -117.868848 212 60ft 11kts

Navigation Log

Ident Type
Flight plan parsing failed, navigation log unavailable